createdAt,value
2018-04-23T00:00:37.287Z,17.52
2018-04-23T00:03:04.684Z,17.48
2018-04-23T00:05:33.377Z,17.45
2018-04-23T00:08:00.788Z,17.39
2018-04-23T00:10:28.524Z,17.32
2018-04-23T00:12:56.031Z,17.23
2018-04-23T00:15:23.464Z,17.15
2018-04-23T00:17:50.861Z,17.13
2018-04-23T00:20:18.340Z,17.09
2018-04-23T00:22:45.733Z,17.02
2018-04-23T00:25:13.780Z,17.01
2018-04-23T00:27:41.213Z,16.98
2018-04-23T00:30:09.908Z,17.00
2018-04-23T00:32:37.309Z,16.99
2018-04-23T00:35:04.734Z,16.92
2018-04-23T00:37:32.198Z,16.85
2018-04-23T00:39:59.601Z,16.84
2018-04-23T00:42:26.986Z,16.81
2018-04-23T00:44:55.181Z,16.76
2018-04-23T00:47:22.566Z,16.78
2018-04-23T00:49:51.303Z,16.76
2018-04-23T00:52:18.685Z,16.76
2018-04-23T00:54:46.075Z,16.73
2018-04-23T00:57:13.459Z,16.68
2018-04-23T00:59:40.942Z,16.73
2018-04-23T01:02:08.339Z,16.65
2018-04-23T01:04:35.735Z,16.53
2018-04-23T01:07:03.121Z,16.49
2018-04-23T01:09:30.527Z,16.34
2018-04-23T01:11:58.824Z,16.21
2018-04-23T01:14:26.240Z,16.15
2018-04-23T01:16:53.711Z,16.13
2018-04-23T01:19:22.079Z,16.20
2018-04-23T01:21:49.463Z,16.11
2018-04-23T01:24:16.906Z,16.01
2018-04-23T01:26:44.439Z,15.98
2018-04-23T01:29:11.827Z,15.99
2018-04-23T01:31:39.222Z,15.93
2018-04-23T01:34:06.608Z,15.95
2018-04-23T01:36:33.988Z,15.90
2018-04-23T01:39:01.381Z,15.96
2018-04-23T01:41:28.762Z,15.92
2018-04-23T01:43:56.627Z,15.91
2018-04-23T01:46:24.344Z,15.94
2018-04-23T01:48:51.745Z,16.02
2018-04-23T01:51:19.155Z,16.04
2018-04-23T01:53:46.543Z,16.09
2018-04-23T01:56:13.935Z,16.13
2018-04-23T01:58:41.343Z,16.19
2018-04-23T02:01:08.891Z,16.24
2018-04-23T02:03:36.282Z,16.23
2018-04-23T02:06:03.679Z,16.21
2018-04-23T02:08:31.257Z,16.23
2018-04-23T02:10:59.396Z,16.30
2018-04-23T02:13:26.779Z,16.44
2018-04-23T02:15:55.348Z,16.36
2018-04-23T02:18:22.739Z,16.33
2018-04-23T02:20:50.140Z,16.32
2018-04-23T02:23:17.522Z,16.24
2018-04-23T02:25:44.908Z,16.25
2018-04-23T02:28:12.304Z,16.19
2018-04-23T02:30:39.700Z,16.23
2018-04-23T02:33:07.566Z,16.24
2018-04-23T02:35:34.953Z,16.29
2018-04-23T02:38:02.336Z,16.37
2018-04-23T02:40:29.737Z,16.37
2018-04-23T02:42:57.133Z,16.27
2018-04-23T02:45:25.009Z,16.28
2018-04-23T02:47:52.395Z,16.36
2018-04-23T02:50:19.832Z,16.37
2018-04-23T02:52:47.534Z,16.37
2018-04-23T02:55:14.919Z,16.47
2018-04-23T02:57:42.317Z,16.55
2018-04-23T03:00:09.703Z,16.49
2018-04-23T03:02:37.128Z,16.43
2018-04-23T03:05:04.496Z,16.32
2018-04-23T03:07:31.889Z,16.33
2018-04-23T03:09:59.403Z,16.38
2018-04-23T03:12:27.707Z,16.45
2018-04-23T03:14:55.095Z,16.44
2018-04-23T03:17:22.498Z,16.47
2018-04-23T03:19:49.904Z,16.47
2018-04-23T03:22:17.300Z,16.45
2018-04-23T03:24:45.360Z,16.48
2018-04-23T03:27:12.743Z,16.37
2018-04-23T03:29:40.137Z,16.17
2018-04-23T03:32:07.525Z,16.03
2018-04-23T03:34:34.945Z,16.03
2018-04-23T03:37:02.387Z,15.94
2018-04-23T03:39:29.724Z,15.99
2018-04-23T03:41:57.303Z,16.03
2018-04-23T03:44:24.685Z,16.06
2018-04-23T03:46:52.080Z,15.99
2018-04-23T03:49:19.453Z,15.95
2018-04-23T03:51:46.898Z,15.91
2018-04-23T03:54:14.319Z,15.87
2018-04-23T03:56:41.734Z,15.86
2018-04-23T03:59:09.116Z,15.66
2018-04-23T04:01:36.572Z,15.66
2018-04-23T04:04:03.974Z,15.69
2018-04-23T04:06:31.366Z,15.75
2018-04-23T04:08:58.761Z,15.79
2018-04-23T04:11:26.545Z,15.90
2018-04-23T04:14:05.570Z,15.83
2018-04-23T04:16:44.716Z,15.64
2018-04-23T04:19:12.800Z,15.66
2018-04-23T04:21:40.203Z,15.60
2018-04-23T04:24:07.608Z,15.58
2018-04-23T04:26:34.996Z,15.33
2018-04-23T04:29:02.417Z,15.33
2018-04-23T04:31:29.908Z,15.35
2018-04-23T04:33:57.293Z,15.44
2018-04-23T04:36:24.686Z,15.55
2018-04-23T04:38:52.080Z,15.56
2018-04-23T04:41:19.472Z,15.53
2018-04-23T04:43:47.389Z,15.56
2018-04-23T04:46:14.778Z,15.65
2018-04-23T04:48:42.242Z,15.64
2018-04-23T04:51:09.632Z,15.57
2018-04-23T04:53:37.040Z,15.45
2018-04-23T04:56:04.524Z,15.36
2018-04-23T04:58:31.920Z,15.31
2018-04-23T05:01:00.136Z,15.29
2018-04-23T05:03:28.040Z,15.28
2018-04-23T05:05:55.587Z,15.37
2018-04-23T05:08:22.907Z,15.27
2018-04-23T05:10:50.284Z,15.39
2018-04-23T05:13:17.681Z,15.56
2018-04-23T05:15:45.076Z,15.81
2018-04-23T05:18:12.471Z,16.02
2018-04-23T05:20:39.894Z,16.28
2018-04-23T05:23:08.065Z,16.62
2018-04-23T05:25:35.462Z,16.81
2018-04-23T05:28:02.856Z,16.38
2018-04-23T05:30:31.434Z,16.23
2018-04-23T05:32:58.817Z,16.33
2018-04-23T05:35:26.214Z,16.45
2018-04-23T05:37:53.640Z,16.33
2018-04-23T05:40:21.161Z,16.31
2018-04-23T05:42:48.563Z,16.38
2018-04-23T05:45:15.960Z,16.36
2018-04-23T05:47:43.362Z,16.51
2018-04-23T05:50:10.765Z,16.46
2018-04-23T05:52:38.856Z,16.49
2018-04-23T05:55:06.625Z,16.76
2018-04-23T05:57:34.028Z,17.08
2018-04-23T06:00:01.449Z,17.28
2018-04-23T06:02:28.824Z,17.66
2018-04-23T06:04:56.292Z,18.03
2018-04-23T06:07:23.688Z,18.25
2018-04-23T06:09:51.071Z,18.48
2018-04-23T06:12:18.465Z,18.64
2018-04-23T06:14:45.884Z,19.04
2018-04-23T06:17:13.288Z,19.38
2018-04-23T06:19:40.700Z,19.83
2018-04-23T06:22:08.193Z,20.05
2018-04-23T06:24:35.645Z,19.89
2018-04-23T06:27:03.740Z,19.68
2018-04-23T06:29:31.119Z,19.64
2018-04-23T06:31:58.688Z,19.66
2018-04-23T06:34:26.083Z,19.25
2018-04-23T06:36:53.474Z,18.64
2018-04-23T06:39:20.890Z,18.50
2018-04-23T06:41:48.283Z,18.16
2018-04-23T06:44:15.693Z,17.91
2018-04-23T06:46:43.833Z,17.96
2018-04-23T06:49:11.223Z,18.21
2018-04-23T06:51:38.616Z,18.76
2018-04-23T06:54:06.412Z,19.14
2018-04-23T06:56:34.093Z,19.60
2018-04-23T06:59:01.545Z,19.90
2018-04-23T07:01:28.887Z,20.01
2018-04-23T07:03:57.419Z,20.24
2018-04-23T07:06:24.793Z,20.21
2018-04-23T07:08:52.984Z,20.40
2018-04-23T07:11:20.516Z,20.79
2018-04-23T07:13:47.910Z,20.97
2018-04-23T07:16:15.305Z,20.90
2018-04-23T07:18:42.687Z,20.50
2018-04-23T07:21:10.088Z,20.69
2018-04-23T07:23:37.499Z,20.33
2018-04-23T07:26:04.877Z,20.08
2018-04-23T07:28:32.276Z,20.09
2018-04-23T07:30:59.685Z,20.07
2018-04-23T07:33:28.102Z,20.50
2018-04-23T07:35:55.488Z,20.77
2018-04-23T07:38:22.879Z,20.70
2018-04-23T07:40:50.316Z,20.55
2018-04-23T07:43:17.699Z,20.30
2018-04-23T07:45:45.088Z,19.92
2018-04-23T07:48:12.488Z,19.59
2018-04-23T07:50:39.860Z,19.27
2018-04-23T07:53:08.404Z,18.65
2018-04-23T07:55:36.005Z,18.32
2018-04-23T07:58:03.581Z,17.87
2018-04-23T08:00:30.968Z,17.62
2018-04-23T08:02:58.363Z,17.33
2018-04-23T08:05:25.748Z,17.10
2018-04-23T08:07:53.143Z,16.89
2018-04-23T08:10:20.531Z,16.80
2018-04-23T08:12:48.027Z,16.72
2018-04-23T08:15:15.417Z,16.75
2018-04-23T08:17:42.807Z,16.70
2018-04-23T08:20:10.202Z,16.64
2018-04-23T08:22:37.695Z,16.56
2018-04-23T08:25:05.077Z,16.16
2018-04-23T08:27:32.483Z,16.20
2018-04-23T08:30:01.009Z,15.97
2018-04-23T08:32:28.401Z,15.83
2018-04-23T08:34:55.825Z,15.80
2018-04-23T08:37:23.224Z,15.84
2018-04-23T08:39:50.620Z,15.71
2018-04-23T08:42:17.997Z,15.68
2018-04-23T08:44:45.395Z,15.79
2018-04-23T08:47:12.792Z,15.90
2018-04-23T08:49:41.022Z,15.97
2018-04-23T08:52:08.396Z,15.87
2018-04-23T08:54:35.799Z,15.81
2018-04-23T08:57:03.464Z,15.61
2018-04-23T08:59:30.872Z,15.72
2018-04-23T09:01:58.248Z,15.88
2018-04-23T09:04:25.942Z,16.15
2018-04-23T09:06:53.557Z,16.29
2018-04-23T09:09:20.956Z,16.62
2018-04-23T09:11:48.340Z,16.98
2018-04-23T09:14:16.056Z,17.37
2018-04-23T09:16:43.438Z,17.81
2018-04-23T09:19:11.312Z,18.27
2018-04-23T09:21:39.457Z,18.37
2018-04-23T09:24:06.931Z,18.55
2018-04-23T09:26:34.306Z,18.75
2018-04-23T09:29:01.927Z,18.57
2018-04-23T09:31:29.743Z,18.53
2018-04-23T09:33:57.135Z,18.67
2018-04-23T09:36:24.511Z,18.81
2018-04-23T09:38:52.292Z,18.42
2018-04-23T09:41:19.705Z,18.60
2018-04-23T09:43:47.084Z,18.90
2018-04-23T09:46:14.483Z,18.89
2018-04-23T09:48:42.656Z,19.01
2018-04-23T09:51:10.050Z,19.24
2018-04-23T09:53:37.437Z,19.34
2018-04-23T09:56:04.835Z,19.20
2018-04-23T09:58:32.872Z,18.99
2018-04-23T10:01:00.883Z,18.66
2018-04-23T10:03:33.889Z,19.00
2018-04-23T10:06:02.206Z,19.12
2018-04-23T10:08:29.569Z,18.87
2018-04-23T10:10:57.599Z,18.95
2018-04-23T10:13:25.019Z,19.15
2018-04-23T10:15:52.713Z,18.92
2018-04-23T10:18:20.105Z,19.18
2018-04-23T10:20:47.497Z,19.27
2018-04-23T10:23:14.884Z,19.17
2018-04-23T10:25:42.292Z,19.29
2018-04-23T10:28:09.690Z,19.60
2018-04-23T10:30:37.160Z,19.99
2018-04-23T10:33:05.273Z,20.11
2018-04-23T10:35:32.674Z,20.28
2018-04-23T10:38:00.069Z,20.34
2018-04-23T10:40:27.472Z,20.61
2018-04-23T10:42:54.907Z,20.68
2018-04-23T10:45:22.307Z,20.57
2018-04-23T10:47:50.133Z,20.82
2018-04-23T10:50:17.532Z,21.19
2018-04-23T10:52:44.938Z,21.36
2018-04-23T10:55:12.347Z,21.59
2018-04-23T10:57:39.725Z,21.82
2018-04-23T11:00:07.115Z,21.43
2018-04-23T11:02:34.539Z,21.30
2018-04-23T11:05:01.925Z,21.22
2018-04-23T11:07:29.391Z,21.39
2018-04-23T11:09:56.768Z,21.51
2018-04-23T11:12:24.552Z,21.56
2018-04-23T11:14:51.945Z,21.41
2018-04-23T11:17:19.589Z,21.51
2018-04-23T11:19:46.975Z,21.58
2018-04-23T11:22:15.460Z,21.61
2018-04-23T11:24:42.856Z,21.19
2018-04-23T11:27:10.235Z,21.11
2018-04-23T11:29:37.632Z,21.05
2018-04-23T11:32:05.018Z,21.12
2018-04-23T11:34:32.409Z,20.92
2018-04-23T11:36:59.803Z,20.54
2018-04-23T11:39:28.697Z,20.31
2018-04-23T11:41:56.174Z,19.99
2018-04-23T11:44:23.555Z,19.90
2018-04-23T11:46:51.119Z,19.89
2018-04-23T11:49:19.336Z,19.90
2018-04-23T11:51:46.728Z,19.70
2018-04-23T11:54:14.120Z,19.57
2018-04-23T11:56:41.605Z,19.71
2018-04-23T11:59:09.437Z,19.72
2018-04-23T12:01:36.837Z,19.85
2018-04-23T22:02:39.335Z,14.49
2018-04-23T22:05:07.005Z,14.44
2018-04-23T22:07:34.409Z,14.24
2018-04-23T22:10:01.817Z,14.16
2018-04-23T22:12:29.191Z,14.07
2018-04-23T22:14:56.602Z,14.01
2018-04-23T22:17:24.022Z,14.04
2018-04-23T22:19:51.448Z,13.97
2018-04-23T22:22:19.001Z,13.94
2018-04-23T22:24:46.401Z,13.86
2018-04-23T22:27:14.004Z,13.82
2018-04-23T22:29:41.413Z,13.78
2018-04-23T22:32:09.533Z,13.82
2018-04-23T22:34:36.859Z,13.85
2018-04-23T22:37:04.256Z,13.95
2018-04-23T22:39:32.146Z,13.99
2018-04-23T22:41:59.546Z,13.94
2018-04-23T22:44:27.840Z,13.90
2018-04-23T22:46:55.215Z,13.87
2018-04-23T22:49:22.617Z,13.83
2018-04-23T22:51:50.028Z,13.73
2018-04-23T22:54:17.582Z,13.70
2018-04-23T22:56:44.959Z,13.57
2018-04-23T22:59:12.365Z,13.50
2018-04-23T23:01:39.767Z,13.47
2018-04-23T23:04:07.955Z,13.44
2018-04-23T23:06:35.338Z,13.37
2018-04-23T23:09:02.726Z,13.36
2018-04-23T23:11:30.228Z,13.52
2018-04-23T23:13:57.616Z,13.51
2018-04-23T23:16:25.025Z,13.37
2018-04-23T23:18:52.453Z,13.43
2018-04-23T23:21:19.934Z,13.46
2018-04-23T23:23:47.321Z,13.35
2018-04-23T23:26:14.728Z,13.30
2018-04-23T23:28:42.107Z,13.44
2018-04-23T23:31:09.520Z,13.54
2018-04-23T23:33:36.915Z,13.49
2018-04-23T23:36:04.315Z,13.40
2018-04-23T23:38:31.744Z,13.33
2018-04-23T23:40:59.135Z,13.26
2018-04-23T23:43:26.520Z,13.16
2018-04-23T23:45:53.917Z,13.21
2018-04-23T23:48:21.348Z,13.19
2018-04-23T23:50:48.770Z,13.09
2018-04-23T23:53:16.151Z,12.89
2018-04-23T23:55:44.175Z,12.83
2018-04-23T23:58:12.195Z,12.80
